Time;durP1;ratioP1;P1;durP2;ratioP2;P2;SDS_P1;SDS_P2;PMS_P1;PMS_P2;Temp;Humidity;BMP_temperature;BMP_pressure;BME280_temperature;BME280_humidity;BME280_pressure;Samples;Min_cycle;Max_cycle;Signal;HPM_P1;HPM_P2
2021/12/02 00:01:54;;;;;;;7.90;4.80;;;6.60;99.90;;;;;;5024652;28;20665;-65
2021/12/02 00:04:21;;;;;;;7.07;5.20;;;6.60;99.90;;;;;;5029667;28;20246;-66
2021/12/02 00:06:48;;;;;;;5.90;4.33;;;6.70;99.90;;;;;;5024104;28;20703;-65
2021/12/02 00:09:16;;;;;;;6.23;4.20;;;6.60;99.90;;;;;;5019318;28;20234;-65
2021/12/02 00:11:43;;;;;;;7.30;4.90;;;6.60;99.90;;;;;;5026228;28;20230;-67
2021/12/02 00:14:11;;;;;;;6.53;4.33;;;6.60;99.90;;;;;;5025252;28;20607;-66
2021/12/02 00:16:49;;;;;;;6.60;4.47;;;6.70;99.90;;;;;;5013623;28;20579;-67
2021/12/02 00:22:03;;;;;;;5.87;4.23;;;6.70;99.90;;;;;;5015927;28;20300;-66
2021/12/02 00:24:35;;;;;;;6.03;4.30;;;6.70;99.90;;;;;;5024035;28;20239;-66
2021/12/02 00:27:06;;;;;;;6.93;4.40;;;6.70;99.90;;;;;;5029823;28;20210;-66
2021/12/02 00:29:35;;;;;;;7.10;4.30;;;6.70;99.90;;;;;;5018352;28;20303;-66
2021/12/02 00:32:04;;;;;;;5.53;4.27;;;6.70;99.90;;;;;;5013474;28;20289;-67
2021/12/02 00:34:32;;;;;;;6.83;3.97;;;6.70;99.90;;;;;;5026163;28;20311;-67
2021/12/02 00:37:02;;;;;;;6.57;4.20;;;6.80;99.90;;;;;;5021543;28;20242;-66
2021/12/02 00:39:29;;;;;;;7.10;4.10;;;6.80;99.90;;;;;;5018898;28;20393;-67
2021/12/02 00:41:58;;;;;;;5.57;3.93;;;6.80;99.90;;;;;;5023242;28;20622;-65
2021/12/02 00:44:25;;;;;;;5.90;4.07;;;6.80;99.90;;;;;;5014368;28;20298;-66
2021/12/02 00:46:51;;;;;;;4.97;3.97;;;6.80;99.90;;;;;;5013485;28;20302;-66
2021/12/02 00:49:20;;;;;;;6.17;3.50;;;6.80;99.90;;;;;;5030629;28;20245;-67
2021/12/02 00:51:53;;;;;;;5.47;3.70;;;6.80;99.90;;;;;;5024788;28;20298;-66
2021/12/02 00:54:20;;;;;;;6.33;3.83;;;6.80;99.90;;;;;;5025468;28;20783;-66
2021/12/02 00:56:48;;;;;;;6.17;3.90;;;6.90;99.90;;;;;;5033041;28;20597;-66
2021/12/02 00:59:17;;;;;;;4.53;3.70;;;6.90;99.90;;;;;;5013710;28;20249;-66
2021/12/02 01:01:46;;;;;;;5.23;3.20;;;6.90;99.90;;;;;;5025654;28;20273;-67
2021/12/02 01:04:16;;;;;;;3.93;3.23;;;6.90;99.90;;;;;;5024089;28;20207;-67
2021/12/02 01:06:43;;;;;;;4.77;3.23;;;7.00;99.90;;;;;;5012990;28;20525;-66
2021/12/02 01:09:12;;;;;;;5.00;3.50;;;6.90;99.90;;;;;;5014824;28;20282;-66
2021/12/02 01:11:40;;;;;;;5.37;3.43;;;7.00;99.90;;;;;;5030730;28;20258;-66
2021/12/02 01:14:09;;;;;;;4.80;3.73;;;6.90;99.90;;;;;;5031268;28;20320;-66
2021/12/02 01:16:38;;;;;;;5.93;3.90;;;7.00;99.90;;;;;;5023199;28;20290;-66
2021/12/02 01:19:06;;;;;;;4.63;3.40;;;7.00;99.90;;;;;;5022139;28;20211;-67
2021/12/02 01:21:33;;;;;;;3.07;2.70;;;7.00;99.90;;;;;;5018524;28;20314;-66
2021/12/02 01:24:03;;;;;;;4.60;3.30;;;7.00;99.90;;;;;;5029126;28;20576;-65
2021/12/02 01:26:33;;;;;;;4.80;2.97;;;7.10;99.90;;;;;;5013171;28;20576;-66
2021/12/02 01:29:02;;;;;;;4.63;3.53;;;7.10;99.90;;;;;;5025969;28;20611;-66
2021/12/02 01:31:31;;;;;;;4.90;3.07;;;7.10;99.90;;;;;;5020172;28;20207;-65
2021/12/02 01:34:01;;;;;;;4.13;3.33;;;7.10;99.90;;;;;;5012216;28;20199;-67
2021/12/02 01:36:33;;;;;;;5.03;3.47;;;7.10;99.90;;;;;;5018893;28;20207;-67
2021/12/02 01:39:00;;;;;;;4.00;3.07;;;7.10;99.90;;;;;;5030892;28;20265;-65
2021/12/02 01:41:27;;;;;;;4.70;3.20;;;7.10;99.90;;;;;;5012132;28;20305;-66
2021/12/02 01:43:55;;;;;;;3.27;2.70;;;7.10;99.90;;;;;;5021209;28;20218;-66
2021/12/02 01:46:24;;;;;;;3.13;2.80;;;7.20;99.90;;;;;;5014844;28;20297;-66
2021/12/02 01:49:00;;;;;;;6.00;3.23;;;7.20;99.90;;;;;;5027221;28;20206;-67
2021/12/02 01:51:29;;;;;;;3.37;2.67;;;7.20;99.90;;;;;;5012296;28;20195;-66
2021/12/02 01:54:05;;;;;;;3.83;2.87;;;7.20;99.90;;;;;;5012425;28;20298;-65
2021/12/02 01:56:36;;;;;;;3.77;2.73;;;7.20;99.90;;;;;;5026090;28;20397;-66
2021/12/02 01:59:11;;;;;;;4.47;3.17;;;7.20;99.90;;;;;;5024607;28;20245;-65
2021/12/02 02:01:41;;;;;;;3.90;2.63;;;7.10;99.90;;;;;;5023755;28;20305;-67
2021/12/02 02:04:09;;;;;;;3.80;2.80;;;7.10;99.90;;;;;;5031785;28;20707;-66
2021/12/02 02:06:41;;;;;;;3.80;3.07;;;7.20;99.90;;;;;;5027078;28;20211;-66
2021/12/02 02:09:09;;;;;;;5.23;3.23;;;7.10;99.90;;;;;;5023684;28;20685;-66
2021/12/02 02:11:37;;;;;;;4.23;2.97;;;7.10;99.90;;;;;;5017951;28;20195;-65
2021/12/02 02:14:07;;;;;;;4.10;3.00;;;7.20;99.90;;;;;;5023968;28;20326;-66
2021/12/02 02:16:34;;;;;;;5.10;3.10;;;7.20;99.90;;;;;;5024154;28;20238;-67
2021/12/02 02:19:01;;;;;;;4.20;2.90;;;7.20;99.90;;;;;;5021481;28;20627;-66
2021/12/02 02:21:31;;;;;;;3.73;3.03;;;7.20;99.90;;;;;;5025449;28;20329;-66
2021/12/02 02:23:58;;;;;;;4.47;2.80;;;7.20;99.90;;;;;;5025410;28;20199;-66
2021/12/02 02:26:29;;;;;;;4.20;2.90;;;7.40;99.90;;;;;;5030092;28;20569;-66
2021/12/02 02:28:58;;;;;;;3.07;2.77;;;7.30;99.90;;;;;;5024543;28;20215;-65
2021/12/02 02:31:28;;;;;;;3.50;2.60;;;7.30;99.90;;;;;;5024218;28;20237;-66
2021/12/02 02:33:55;;;;;;;4.80;2.97;;;7.30;99.90;;;;;;5013384;28;20284;-65
2021/12/02 02:36:23;;;;;;;3.50;2.80;;;7.30;99.90;;;;;;5023501;28;20261;-65
2021/12/02 02:38:56;;;;;;;3.90;2.60;;;7.30;99.90;;;;;;5012895;28;20211;-65
2021/12/02 02:41:24;;;;;;;3.90;2.80;;;7.30;99.90;;;;;;5017634;28;20691;-65
2021/12/02 02:43:55;;;;;;;3.83;2.60;;;7.20;99.90;;;;;;5027832;28;20290;-66
2021/12/02 02:46:24;;;;;;;4.97;3.00;;;7.20;99.90;;;;;;5017715;28;20231;-64
2021/12/02 02:48:51;;;;;;;5.50;2.93;;;7.20;99.90;;;;;;5021982;28;20297;-65
2021/12/02 02:51:19;;;;;;;4.20;2.73;;;7.20;99.90;;;;;;5017062;28;20289;-65
2021/12/02 02:53:53;;;;;;;3.63;2.97;;;7.10;99.90;;;;;;5020537;28;20322;-65
2021/12/02 02:56:21;;;;;;;3.43;2.53;;;7.10;99.90;;;;;;5025800;28;20218;-67
2021/12/02 02:58:58;;;;;;;4.13;2.70;;;7.10;99.90;;;;;;5031651;28;20656;-66
2021/12/02 03:01:37;;;;;;;4.27;2.70;;;7.10;99.90;;;;;;5012976;28;20215;-66
2021/12/02 03:04:16;;;;;;;3.47;2.50;;;7.10;99.90;;;;;;5022035;28;20206;-66
2021/12/02 03:06:49;;;;;;;3.33;2.47;;;7.10;99.90;;;;;;5017414;28;20578;-66
2021/12/02 03:09:25;;;;;;;4.27;2.97;;;7.10;99.90;;;;;;5018458;28;20238;-65
2021/12/02 03:11:55;;;;;;;3.20;2.03;;;7.10;99.90;;;;;;5019037;28;20203;-66
2021/12/02 03:14:29;;;;;;;3.60;2.57;;;7.10;99.90;;;;;;5025962;28;20227;-65
2021/12/02 03:16:55;;;;;;;3.37;2.50;;;7.10;99.90;;;;;;5030364;28;20210;-65
2021/12/02 03:19:27;;;;;;;3.83;2.60;;;7.00;99.90;;;;;;5030823;28;20260;-65
2021/12/02 03:21:56;;;;;;;4.57;2.60;;;7.00;99.90;;;;;;5030285;28;20688;-65
2021/12/02 03:24:25;;;;;;;3.97;2.63;;;7.00;99.90;;;;;;5029637;28;20285;-66
2021/12/02 03:26:52;;;;;;;2.83;2.50;;;7.00;99.90;;;;;;5015650;28;20643;-66
2021/12/02 03:29:20;;;;;;;4.13;2.93;;;7.00;99.90;;;;;;5011270;28;20246;-65
2021/12/02 03:31:47;;;;;;;3.57;2.73;;;7.00;99.90;;;;;;5024666;28;20670;-65
2021/12/02 03:34:14;;;;;;;4.03;3.10;;;7.00;99.90;;;;;;5017308;28;20222;-66
2021/12/02 03:36:41;;;;;;;2.80;2.50;;;7.00;99.90;;;;;;5015887;28;20318;-66
2021/12/02 03:39:10;;;;;;;3.67;2.53;;;7.00;99.90;;;;;;5011301;28;20239;-65
2021/12/02 03:41:40;;;;;;;2.77;2.40;;;7.00;99.90;;;;;;5010848;28;20230;-65
2021/12/02 03:44:08;;;;;;;3.13;2.60;;;7.00;99.90;;;;;;5010636;28;20286;-66
2021/12/02 03:46:36;;;;;;;2.50;2.10;;;7.00;99.90;;;;;;5010921;28;20298;-66
2021/12/02 03:49:04;;;;;;;3.40;2.47;;;7.00;99.90;;;;;;5028336;28;20293;-65
2021/12/02 03:51:31;;;;;;;3.03;2.50;;;6.90;99.90;;;;;;5024287;28;20210;-65
2021/12/02 03:53:59;;;;;;;2.90;2.27;;;6.90;99.90;;;;;;5022397;28;20574;-66
2021/12/02 03:56:26;;;;;;;2.83;2.30;;;6.90;99.90;;;;;;5028281;28;20545;-65
2021/12/02 03:58:55;;;;;;;5.60;2.30;;;6.90;99.90;;;;;;5024491;28;20203;-66
2021/12/02 04:01:23;;;;;;;3.37;2.33;;;6.90;99.90;;;;;;5012475;28;20628;-67
2021/12/02 04:03:50;;;;;;;2.73;2.33;;;6.90;99.90;;;;;;5020104;28;20248;-65
2021/12/02 04:06:17;;;;;;;3.03;2.23;;;6.90;99.90;;;;;;5028087;28;20297;-65
2021/12/02 04:08:46;;;;;;;2.90;2.17;;;6.90;99.90;;;;;;5020472;28;21123;-65
2021/12/02 04:11:29;;;;;;;2.27;1.93;;;6.90;99.90;;;;;;5026862;28;20214;-65
2021/12/02 04:14:08;;;;;;;3.17;1.83;;;6.90;99.90;;;;;;5023209;28;20300;-66
2021/12/02 04:16:36;;;;;;;2.47;2.00;;;6.90;99.90;;;;;;5017644;28;20214;-65
2021/12/02 04:19:04;;;;;;;3.80;2.03;;;6.90;99.90;;;;;;5024177;28;20206;-66
2021/12/02 04:21:31;;;;;;;2.20;1.80;;;6.90;99.90;;;;;;5020182;28;20770;-65
2021/12/02 04:23:58;;;;;;;3.43;1.67;;;6.90;99.90;;;;;;5026464;28;20624;-65
2021/12/02 04:26:25;;;;;;;4.27;2.07;;;6.90;99.90;;;;;;5033987;28;20248;-66
2021/12/02 04:28:52;;;;;;;3.90;1.50;;;6.90;99.90;;;;;;5021794;28;20238;-66
2021/12/02 04:31:20;;;;;;;1.90;1.37;;;7.00;99.90;;;;;;5015977;28;20231;-65
2021/12/02 04:33:47;;;;;;;2.27;1.30;;;7.00;99.90;;;;;;5023031;28;20238;-67
2021/12/02 04:36:14;;;;;;;2.27;1.60;;;7.00;99.90;;;;;;5024676;28;20277;-65
2021/12/02 04:38:41;;;;;;;2.47;1.73;;;7.00;99.90;;;;;;5019811;28;20296;-66
2021/12/02 04:41:07;;;;;;;2.37;1.40;;;7.00;99.90;;;;;;5024371;28;20293;-66
2021/12/02 04:43:34;;;;;;;1.27;1.17;;;7.10;99.90;;;;;;5019301;28;20623;-64
2021/12/02 04:46:01;;;;;;;1.70;1.20;;;7.10;99.90;;;;;;5026513;28;20260;-66
2021/12/02 04:48:29;;;;;;;1.20;1.10;;;7.10;99.90;;;;;;5020352;28;20275;-65
2021/12/02 04:50:56;;;;;;;1.63;1.30;;;7.20;99.90;;;;;;5015124;28;20299;-66
2021/12/02 04:53:23;;;;;;;4.60;1.33;;;7.20;99.90;;;;;;5028755;28;20290;-66
2021/12/02 04:55:51;;;;;;;2.87;1.53;;;7.20;99.90;;;;;;5032641;28;20214;-67
2021/12/02 04:58:18;;;;;;;1.40;1.27;;;7.20;99.90;;;;;;5020144;28;20202;-67
2021/12/02 05:00:45;;;;;;;2.30;1.30;;;7.20;99.90;;;;;;5022845;28;20245;-66
2021/12/02 05:03:12;;;;;;;2.27;1.50;;;7.20;99.90;;;;;;5019399;28;20265;-66
2021/12/02 05:05:40;;;;;;;1.53;1.30;;;7.20;99.90;;;;;;5013183;28;20221;-65
2021/12/02 05:08:07;;;;;;;2.87;1.43;;;7.20;99.90;;;;;;5016134;28;20289;-66
2021/12/02 05:10:34;;;;;;;1.87;1.40;;;7.20;99.90;;;;;;5023072;28;20207;-65
2021/12/02 05:13:01;;;;;;;1.40;1.13;;;7.10;99.90;;;;;;5028117;28;20667;-66
2021/12/02 05:15:28;;;;;;;2.63;1.10;;;7.10;99.90;;;;;;5025267;28;20318;-66
2021/12/02 05:17:55;;;;;;;2.03;1.13;;;7.10;99.90;;;;;;5023032;28;20370;-66
2021/12/02 05:20:22;;;;;;;2.93;1.60;;;7.10;99.90;;;;;;5018730;28;20245;-66
2021/12/02 05:22:50;;;;;;;2.37;1.13;;;7.10;99.90;;;;;;5023215;28;20265;-66
2021/12/02 05:25:17;;;;;;;2.27;1.60;;;7.10;99.90;;;;;;5017052;28;20238;-66
2021/12/02 05:27:44;;;;;;;2.57;1.10;;;7.10;99.90;;;;;;5021899;28;20254;-65
2021/12/02 05:30:11;;;;;;;1.20;1.10;;;7.10;99.90;;;;;;5026394;28;20246;-64
2021/12/02 05:32:38;;;;;;;1.93;1.27;;;7.10;99.90;;;;;;5017591;28;20229;-65
2021/12/02 05:35:07;;;;;;;1.23;1.13;;;7.10;99.90;;;;;;5026053;28;20242;-65
2021/12/02 05:37:33;;;;;;;1.80;0.93;;;7.10;99.90;;;;;;5019934;28;20286;-66
2021/12/02 05:40:02;;;;;;;1.80;1.40;;;7.20;99.90;;;;;;5027733;28;20298;-65
2021/12/02 05:42:29;;;;;;;1.37;0.90;;;7.20;99.90;;;;;;5027223;28;20238;-66
2021/12/02 05:44:56;;;;;;;1.47;1.03;;;7.20;99.90;;;;;;5012555;28;20318;-65
2021/12/02 05:47:22;;;;;;;1.27;1.17;;;7.20;99.90;;;;;;5012712;28;20645;-64
2021/12/02 05:49:49;;;;;;;1.47;1.10;;;7.20;99.90;;;;;;5017061;28;20249;-66
2021/12/02 05:52:16;;;;;;;1.40;1.30;;;7.20;99.90;;;;;;5012813;28;20207;-65
2021/12/02 05:54:43;;;;;;;1.67;1.13;;;7.20;99.90;;;;;;5030423;28;20235;-65
2021/12/02 05:57:12;;;;;;;1.00;0.90;;;7.30;99.90;;;;;;5021659;28;20759;-66
2021/12/02 05:59:39;;;;;;;1.20;1.10;;;7.30;99.90;;;;;;5026621;28;20776;-67
2021/12/02 06:02:07;;;;;;;1.50;1.13;;;7.20;99.90;;;;;;5026365;28;20743;-66
2021/12/02 06:04:37;;;;;;;1.53;0.93;;;7.20;99.90;;;;;;5027932;28;20210;-66
2021/12/02 06:07:04;;;;;;;2.17;0.90;;;7.10;99.90;;;;;;5032318;28;20211;-66
2021/12/02 06:09:31;;;;;;;3.30;0.90;;;7.00;99.90;;;;;;5017729;28;20264;-65
2021/12/02 06:11:58;;;;;;;1.63;0.73;;;7.00;99.90;;;;;;5024821;28;20290;-67
2021/12/02 06:14:27;;;;;;;1.77;0.73;;;6.90;99.90;;;;;;5018618;28;20971;-65
2021/12/02 06:16:53;;;;;;;1.70;0.90;;;6.90;99.90;;;;;;5015968;28;20207;-66
2021/12/02 06:19:20;;;;;;;1.73;0.80;;;6.90;99.90;;;;;;5021268;28;20298;-66
2021/12/02 06:21:48;;;;;;;3.60;0.97;;;6.80;99.90;;;;;;5029245;28;20630;-66
2021/12/02 06:24:15;;;;;;;0.83;0.60;;;6.80;99.90;;;;;;5022948;28;20526;-66
2021/12/02 06:26:42;;;;;;;1.23;0.50;;;6.70;99.90;;;;;;5026296;28;20229;-66
2021/12/02 06:29:09;;;;;;;1.83;0.80;;;6.70;99.90;;;;;;5022120;28;20293;-67
2021/12/02 06:31:37;;;;;;;1.73;0.70;;;6.60;99.90;;;;;;5022763;28;20239;-66
2021/12/02 06:34:06;;;;;;;1.67;0.70;;;6.60;99.90;;;;;;5019208;28;20294;-68
2021/12/02 06:36:33;;;;;;;1.97;0.77;;;6.50;99.90;;;;;;5015207;28;20567;-68
2021/12/02 06:39:00;;;;;;;0.80;0.80;;;6.50;99.90;;;;;;5017122;28;20305;-67
2021/12/02 06:41:27;;;;;;;1.87;0.93;;;6.50;99.90;;;;;;5019221;28;20269;-67
2021/12/02 06:43:54;;;;;;;3.83;1.20;;;6.50;99.90;;;;;;5014924;28;20261;-66
2021/12/02 06:46:21;;;;;;;2.20;1.23;;;6.50;99.90;;;;;;5015563;28;20253;-66
2021/12/02 06:48:49;;;;;;;2.60;1.10;;;6.50;99.90;;;;;;5018517;28;20249;-65
2021/12/02 06:51:18;;;;;;;5.70;1.40;;;6.50;99.90;;;;;;5025766;28;20261;-65
2021/12/02 06:53:45;;;;;;;3.03;1.40;;;6.50;99.90;;;;;;5021986;28;20203;-66
2021/12/02 06:56:12;;;;;;;4.40;1.30;;;6.50;99.90;;;;;;5014066;28;20261;-66
2021/12/02 06:58:39;;;;;;;1.47;1.00;;;6.50;99.90;;;;;;5019615;28;20311;-67
2021/12/02 07:01:06;;;;;;;1.40;0.80;;;6.50;99.90;;;;;;5023614;28;20258;-68
2021/12/02 07:03:33;;;;;;;3.00;1.23;;;6.50;99.90;;;;;;5018128;28;20302;-68
2021/12/02 07:06:01;;;;;;;2.80;1.13;;;6.50;99.90;;;;;;5017089;28;20254;-70
2021/12/02 07:08:30;;;;;;;2.20;1.27;;;6.50;99.90;;;;;;5017571;28;20258;-69
2021/12/02 07:10:58;;;;;;;3.10;1.10;;;6.60;99.90;;;;;;5015350;28;20298;-70
2021/12/02 07:13:25;;;;;;;3.27;1.70;;;6.60;99.90;;;;;;5011521;28;20257;-70
2021/12/02 07:15:53;;;;;;;2.23;1.27;;;6.70;99.90;;;;;;5016220;28;20293;-68
2021/12/02 07:18:21;;;;;;;3.13;1.20;;;6.80;99.90;;;;;;5024750;28;20212;-68
2021/12/02 07:20:50;;;;;;;3.80;1.57;;;6.90;99.90;;;;;;5022969;28;20241;-69
2021/12/02 07:23:20;;;;;;;1.40;1.30;;;6.90;99.90;;;;;;5015597;28;20718;-71
2021/12/02 07:25:48;;;;;;;3.03;1.17;;;7.00;99.90;;;;;;5020661;28;20308;-70
2021/12/02 07:28:17;;;;;;;2.60;1.60;;;7.10;99.90;;;;;;5015807;28;20215;-68
2021/12/02 07:30:45;;;;;;;2.30;1.20;;;7.20;99.90;;;;;;5011740;28;20238;-69
2021/12/02 07:33:14;;;;;;;1.87;0.97;;;7.20;99.90;;;;;;5020036;28;20286;-71
2021/12/02 07:35:41;;;;;;;3.50;0.97;;;7.20;99.90;;;;;;5012165;28;20289;-67
2021/12/02 07:38:08;;;;;;;2.50;1.27;;;7.30;99.90;;;;;;5011268;28;20239;-69
2021/12/02 07:40:39;;;;;;;2.97;0.80;;;7.30;99.90;;;;;;5010665;28;20306;-67
2021/12/02 07:43:06;;;;;;;2.00;1.30;;;7.40;99.90;;;;;;5012019;28;20277;-69
2021/12/02 07:45:35;;;;;;;3.80;1.40;;;7.40;99.90;;;;;;5014252;28;20230;-69
2021/12/02 07:48:03;;;;;;;1.90;1.00;;;7.50;99.90;;;;;;5017208;28;20212;-68
2021/12/02 07:50:31;;;;;;;2.93;1.30;;;7.50;99.90;;;;;;5016909;28;20265;-67
2021/12/02 07:53:01;;;;;;;1.57;0.90;;;7.50;99.90;;;;;;5016402;28;20199;-68
2021/12/02 07:55:29;;;;;;;3.50;1.40;;;7.50;99.90;;;;;;5012524;28;20297;-68
2021/12/02 07:57:59;;;;;;;2.33;1.23;;;7.50;99.90;;;;;;5017709;28;20282;-67
2021/12/02 08:00:28;;;;;;;2.20;1.00;;;7.50;99.90;;;;;;5019618;28;20642;-68
2021/12/02 08:02:56;;;;;;;4.10;1.00;;;7.60;99.90;;;;;;5013326;28;20255;-68
2021/12/02 08:05:26;;;;;;;2.00;1.10;;;7.70;99.90;;;;;;5015958;28;20236;-68
2021/12/02 08:07:54;;;;;;;1.80;0.93;;;7.80;99.90;;;;;;5024370;28;20653;-69
2021/12/02 08:10:22;;;;;;;1.23;0.90;;;7.90;99.90;;;;;;5017302;28;20658;-68
2021/12/02 08:12:50;;;;;;;2.17;0.93;;;7.90;99.90;;;;;;5014782;28;20233;-69
2021/12/02 08:15:21;;;;;;;2.83;1.20;;;7.90;99.90;;;;;;5015219;28;20230;-68
2021/12/02 08:17:48;;;;;;;1.57;1.00;;;8.00;99.90;;;;;;5013035;28;20258;-68
2021/12/02 08:20:15;;;;;;;1.97;0.97;;;8.00;99.90;;;;;;5014578;28;20697;-67
2021/12/02 08:22:43;;;;;;;2.10;1.00;;;8.00;99.90;;;;;;5016598;28;21494;-68
2021/12/02 08:25:10;;;;;;;1.70;0.90;;;8.10;99.90;;;;;;5011836;28;20249;-67
2021/12/02 08:27:38;;;;;;;2.57;1.17;;;8.10;99.90;;;;;;5012584;28;20292;-69
2021/12/02 08:30:07;;;;;;;2.53;1.10;;;8.30;99.90;;;;;;5014341;28;20664;-68
2021/12/02 08:32:42;;;;;;;3.00;1.07;;;8.50;99.90;;;;;;5020051;28;20203;-67
2021/12/02 08:35:10;;;;;;;1.40;1.00;;;8.80;99.90;;;;;;5012027;28;20217;-68
2021/12/02 08:37:41;;;;;;;1.90;0.93;;;9.20;99.90;;;;;;5012152;28;20219;-69
2021/12/02 08:40:11;;;;;;;3.27;1.07;;;10.30;99.90;;;;;;5012469;28;20686;-67
2021/12/02 08:42:38;;;;;;;2.03;1.20;;;12.10;98.90;;;;;;5016279;28;20204;-67
2021/12/02 08:45:06;;;;;;;2.67;1.00;;;13.70;93.30;;;;;;5018167;28;20692;-69
2021/12/02 08:47:35;;;;;;;1.70;1.07;;;15.00;73.00;;;;;;5011550;28;20239;-68
2021/12/02 08:50:04;;;;;;;1.20;1.10;;;16.30;72.00;;;;;;5016705;28;20649;-68
2021/12/02 08:52:31;;;;;;;1.20;0.90;;;17.60;66.10;;;;;;5030647;28;20206;-68
2021/12/02 08:54:58;;;;;;;2.57;1.43;;;18.50;54.50;;;;;;5020954;28;20206;-68
2021/12/02 08:57:26;;;;;;;2.50;1.17;;;19.20;52.60;;;;;;5021994;28;20319;-67
2021/12/02 08:59:53;;;;;;;1.80;0.90;;;19.90;51.00;;;;;;5025524;28;20249;-68
2021/12/02 09:02:21;;;;;;;1.90;0.97;;;20.50;46.30;;;;;;5021237;28;20268;-68
2021/12/02 09:04:48;;;;;;;1.77;1.10;;;20.90;45.10;;;;;;5020587;28;20231;-67
2021/12/02 09:07:16;;;;;;;1.70;0.90;;;20.90;45.80;;;;;;5021810;28;20243;-68
2021/12/02 09:09:43;;;;;;;2.70;1.10;;;21.10;42.40;;;;;;5022961;28;20270;-67
2021/12/02 09:12:11;;;;;;;1.70;1.03;;;21.30;44.30;;;;;;5024364;28;20211;-69
2021/12/02 09:14:38;;;;;;;2.30;0.83;;;21.60;41.00;;;;;;5022573;28;20223;-67
2021/12/02 09:17:06;;;;;;;2.73;1.10;;;21.70;41.20;;;;;;5032505;28;20237;-68
2021/12/02 09:19:33;;;;;;;1.90;1.00;;;21.60;41.40;;;;;;5020957;28;20214;-67
2021/12/02 09:22:02;;;;;;;1.63;0.83;;;21.40;39.40;;;;;;5017505;28;20214;-68
2021/12/02 09:24:30;;;;;;;1.23;1.07;;;20.40;38.60;;;;;;5020540;28;20698;-68
2021/12/02 09:26:57;;;;;;;2.10;0.90;;;19.30;40.50;;;;;;5016277;28;20297;-67
2021/12/02 09:29:25;;;;;;;1.50;1.00;;;18.10;41.30;;;;;;5014841;28;20273;-68
2021/12/02 09:31:54;;;;;;;2.10;1.00;;;17.10;43.00;;;;;;5018491;28;20583;-68
2021/12/02 09:34:21;;;;;;;3.30;1.87;;;16.30;44.00;;;;;;5016491;28;20242;-66
2021/12/02 09:36:49;;;;;;;1.60;0.80;;;15.40;45.60;;;;;;5022562;28;20293;-66
2021/12/02 09:39:17;;;;;;;2.83;0.73;;;14.80;46.40;;;;;;5012735;28;20681;-67
2021/12/02 09:41:47;;;;;;;2.80;0.93;;;14.20;47.80;;;;;;5015735;28;20233;-67
2021/12/02 09:44:14;;;;;;;1.17;0.80;;;13.80;48.90;;;;;;5018384;28;20260;-68
2021/12/02 09:46:43;;;;;;;3.47;1.00;;;14.10;51.80;;;;;;5014121;28;20633;-68
2021/12/02 09:49:12;;;;;;;1.40;0.93;;;14.80;51.50;;;;;;5026450;28;20444;-67
2021/12/02 09:51:46;;;;;;;2.17;0.93;;;15.70;49.40;;;;;;5027845;28;20211;-67
2021/12/02 09:54:17;;;;;;;2.33;0.80;;;17.20;48.40;;;;;;5024298;28;20294;-67
2021/12/02 09:56:46;;;;;;;3.57;1.03;;;19.10;45.30;;;;;;5017679;28;20315;-67
2021/12/02 09:59:25;;;;;;;2.40;1.03;;;21.20;42.80;;;;;;5020664;28;20199;-68
2021/12/02 10:01:56;;;;;;;4.30;0.85;;;22.20;41.50;;;;;;5019691;28;20211;-68
2021/12/02 10:04:25;;;;;;;3.08;1.40;;;23.30;40.00;;;;;;5019984;28;20585;-67
2021/12/02 10:07:05;;;;;;;1.42;0.90;;;24.10;38.10;;;;;;5016684;28;20666;-67
2021/12/02 10:09:39;;;;;;;2.13;0.80;;;24.70;37.90;;;;;;5022525;28;20239;-66
2021/12/02 10:12:14;;;;;;;2.25;1.40;;;24.90;36.60;;;;;;5011871;28;20215;-68
2021/12/02 10:14:50;;;;;;;1.30;0.90;;;24.90;36.00;;;;;;5014042;28;20325;-68
2021/12/02 10:17:23;;;;;;;2.25;1.00;;;24.90;37.30;;;;;;5015143;28;20286;-66
2021/12/02 10:20:22;;;;;;;1.23;0.80;;;24.70;35.00;;;;;;5012167;28;20211;-65
2021/12/02 10:23:13;;;;;;;2.72;1.10;;;24.50;35.10;;;;;;5011877;28;20266;-69
2021/12/02 10:25:45;;;;;;;1.70;0.95;;;23.70;36.50;;;;;;5020881;28;20226;-69
2021/12/02 10:28:14;;;;;;;3.40;1.23;;;24.00;37.10;;;;;;5018567;28;20217;-69
2021/12/02 10:30:45;;;;;;;1.10;1.00;;;24.50;35.90;;;;;;5018440;28;20297;-69
2021/12/02 10:33:12;;;;;;;3.60;1.55;;;24.70;35.60;;;;;;5022481;28;20303;-69
2021/12/02 10:35:43;;;;;;;1.85;1.00;;;25.10;35.10;;;;;;5015522;28;20679;-68
2021/12/02 10:38:32;;;;;;;2.72;0.90;;;24.10;33.30;;;;;;5012145;28;20254;-68
2021/12/02 10:41:01;;;;;;;1.88;1.10;;;22.60;37.90;;;;;;5020804;28;20261;-68
2021/12/02 10:43:28;;;;;;;1.65;1.20;;;21.60;36.00;;;;;;5011878;28;20298;-69
2021/12/02 10:46:13;;;;;;;1.65;1.00;;;20.70;38.60;;;;;;5013538;28;20234;-68
2021/12/02 10:48:50;;;;;;;2.27;0.93;;;19.40;38.10;;;;;;5015335;28;20758;-69
2021/12/02 10:51:40;;;;;;;4.77;1.10;;;18.00;39.00;;;;;;5016592;28;20203;-69
2021/12/02 10:54:13;;;;;;;3.00;1.13;;;16.70;41.60;;;;;;5017365;28;20572;-69
2021/12/02 10:56:42;;;;;;;4.10;1.67;;;15.40;42.10;;;;;;5018332;28;20233;-68
2021/12/02 10:59:31;;;;;;;1.47;0.90;;;14.20;44.40;;;;;;5018894;28;20214;-69
2021/12/02 11:02:01;;;;;;;1.47;1.07;;;13.40;47.40;;;;;;5027191;28;20225;-68
2021/12/02 11:04:36;;;;;;;1.63;1.00;;;12.90;47.60;;;;;;5016116;28;20219;-69
2021/12/02 11:07:09;;;;;;;2.03;1.30;;;12.40;48.50;;;;;;5020447;28;20307;-70
2021/12/02 11:09:37;;;;;;;2.27;0.97;;;12.20;51.60;;;;;;5011313;28;20644;-68
2021/12/02 11:12:17;;;;;;;1.97;1.13;;;12.00;50.30;;;;;;5013261;28;20669;-69
2021/12/02 11:14:57;;;;;;;2.00;1.10;;;12.10;50.40;;;;;;5018603;28;20733;-67
2021/12/02 11:17:29;;;;;;;5.73;1.13;;;12.30;50.60;;;;;;5013933;28;20210;-70
2021/12/02 11:19:58;;;;;;;6.57;1.10;;;12.60;49.70;;;;;;5021960;28;20206;-71
2021/12/02 11:22:27;;;;;;;2.57;1.10;;;12.60;49.20;;;;;;5011596;28;20626;-69
2021/12/02 11:24:54;;;;;;;1.42;1.10;;;12.50;49.60;;;;;;5015502;28;20538;-69
2021/12/02 11:27:24;;;;;;;2.43;1.10;;;12.80;51.50;;;;;;5015689;28;20211;-68
2021/12/02 11:30:11;;;;;;;5.77;1.70;;;13.70;49.60;;;;;;5015553;28;20297;-67
2021/12/02 11:32:45;;;;;;;3.83;1.40;;;13.60;47.40;;;;;;5018416;28;20729;-68
2021/12/02 11:35:19;;;;;;;2.63;0.90;;;13.10;47.40;;;;;;5016255;28;20744;-68
2021/12/02 11:37:49;;;;;;;2.03;1.20;;;12.50;48.60;;;;;;5016595;28;20238;-67
2021/12/02 11:40:18;;;;;;;1.90;1.07;;;11.90;49.70;;;;;;5015553;28;20634;-68
2021/12/02 11:42:47;;;;;;;4.90;1.40;;;11.30;50.90;;;;;;5012272;28;20217;-68
2021/12/02 11:45:16;;;;;;;1.30;1.00;;;10.80;51.80;;;;;;5018801;28;20317;-67
2021/12/02 11:47:44;;;;;;;2.63;1.30;;;10.40;52.90;;;;;;5016055;28;20199;-67
2021/12/02 11:50:14;;;;;;;1.20;1.07;;;10.00;53.80;;;;;;5021125;28;20294;-68
2021/12/02 11:52:41;;;;;;;3.43;1.43;;;9.70;55.40;;;;;;5018208;28;20230;-69
2021/12/02 11:55:11;;;;;;;2.70;1.10;;;9.40;56.10;;;;;;5025806;28;20206;-67
2021/12/02 11:57:38;;;;;;;1.83;1.20;;;9.10;57.00;;;;;;5012730;28;20329;-66
2021/12/02 12:00:09;;;;;;;1.80;1.20;;;8.80;57.80;;;;;;5015321;28;20241;-66
2021/12/02 12:02:38;;;;;;;2.93;1.10;;;8.70;58.80;;;;;;5014518;28;20661;-67
2021/12/02 12:05:08;;;;;;;2.03;0.93;;;8.40;59.30;;;;;;5021924;28;20258;-69
2021/12/02 12:07:40;;;;;;;2.07;1.40;;;8.30;60.20;;;;;;5025608;28;20203;-68
2021/12/02 12:10:31;;;;;;;4.47;1.20;;;8.30;60.80;;;;;;5024163;28;20207;-67
2021/12/02 12:13:21;;;;;;;2.93;1.03;;;8.10;61.10;;;;;;5013299;28;20289;-68
2021/12/02 12:15:50;;;;;;;2.90;1.20;;;8.10;61.70;;;;;;5014623;28;20231;-67
2021/12/02 12:18:36;;;;;;;1.60;1.10;;;8.00;61.90;;;;;;5024104;28;20302;-67
2021/12/02 12:21:07;;;;;;;1.80;1.10;;;8.00;62.40;;;;;;5020685;28;20202;-66
2021/12/02 12:23:43;;;;;;;1.53;0.97;;;7.90;62.20;;;;;;5023399;28;20298;-68
2021/12/02 12:26:33;;;;;;;3.33;1.20;;;7.80;61.90;;;;;;5020903;28;20672;-67
2021/12/02 12:29:33;;;;;;;2.50;0.90;;;7.80;61.60;;;;;;5021218;28;20609;-66
2021/12/02 12:35:47;;;;;;;2.23;0.90;;;7.60;61.80;;;;;;4987176;28;20211;-67
2021/12/02 12:38:24;;;;;;;1.40;1.00;;;7.50;62.10;;;;;;5019082;28;20294;-69
2021/12/02 12:40:53;;;;;;;2.83;0.83;;;7.50;62.90;;;;;;5012769;28;20207;-65
2021/12/02 12:43:27;;;;;;;3.47;1.20;;;7.50;62.90;;;;;;5013765;28;20234;-66
2021/12/02 12:46:30;;;;;;;2.10;1.20;;;7.50;62.80;;;;;;5013742;28;20275;-67
2021/12/02 12:49:14;;;;;;;1.90;0.80;;;7.50;62.30;;;;;;5018182;28;20647;-63
2021/12/02 12:51:54;;;;;;;2.07;0.97;;;7.50;62.10;;;;;;5028462;28;20207;-65
2021/12/02 12:54:25;;;;;;;2.23;0.97;;;7.50;62.30;;;;;;5021575;28;20221;-63
2021/12/02 12:57:04;;;;;;;3.00;1.00;;;7.50;62.40;;;;;;5025294;28;20261;-61
2021/12/02 12:59:49;;;;;;;3.93;1.00;;;7.50;62.30;;;;;;5014167;28;20225;-63
2021/12/02 13:02:16;;;;;;;3.17;1.20;;;7.40;62.60;;;;;;5015448;28;20206;-63
2021/12/02 13:04:51;;;;;;;3.77;0.97;;;7.40;62.00;;;;;;5014009;28;20728;-63
2021/12/02 13:07:20;;;;;;;2.37;0.90;;;7.40;62.30;;;;;;5025015;28;20210;-64
2021/12/02 13:09:58;;;;;;;2.67;1.30;;;7.40;62.30;;;;;;5020343;28;20254;-64
2021/12/02 13:12:47;;;;;;;1.47;0.87;;;7.30;61.90;;;;;;5031008;28;20525;-64
2021/12/02 13:15:18;;;;;;;3.00;0.97;;;7.30;62.00;;;;;;5017017;28;20231;-65
2021/12/02 13:17:47;;;;;;;1.53;1.20;;;7.20;61.70;;;;;;5013974;28;20204;-63